sensor_id;sensor_type;location;lat;lon;timestamp;pressure;altitude;pressure_sealevel;temperature;humidity
80186;BME280;69904;52.122;5.422;2024-02-16T00:01:40;101014.28;;;11.32;83.92
80186;BME280;69904;52.122;5.422;2024-02-16T00:04:07;101012.81;;;11.30;84.19
80186;BME280;69904;52.122;5.422;2024-02-16T00:06:33;101008.44;;;11.29;84.50
80186;BME280;69904;52.122;5.422;2024-02-16T00:09:00;101006.75;;;11.28;84.10
80186;BME280;69904;52.122;5.422;2024-02-16T00:11:27;100996.34;;;11.25;84.21
80186;BME280;69904;52.122;5.422;2024-02-16T00:13:55;101009.66;;;11.26;84.43
80186;BME280;69904;52.122;5.422;2024-02-16T00:16:21;101000.72;;;11.26;84.39
80186;BME280;69904;52.122;5.422;2024-02-16T00:18:48;100998.41;;;11.23;84.34
80186;BME280;69904;52.122;5.422;2024-02-16T00:21:14;100998.41;;;11.23;84.23
80186;BME280;69904;52.122;5.422;2024-02-16T00:23:43;100998.63;;;11.21;84.26
80186;BME280;69904;52.122;5.422;2024-02-16T00:26:11;100997.13;;;11.19;84.52
80186;BME280;69904;52.122;5.422;2024-02-16T00:28:37;100994.00;;;11.15;84.83
80186;BME280;69904;52.122;5.422;2024-02-16T00:31:04;100996.72;;;11.15;84.78
80186;BME280;69904;52.122;5.422;2024-02-16T00:33:32;101002.94;;;11.16;84.58
80186;BME280;69904;52.122;5.422;2024-02-16T00:35:59;100999.41;;;11.15;84.85
80186;BME280;69904;52.122;5.422;2024-02-16T00:38:26;100997.56;;;11.16;84.61
80186;BME280;69904;52.122;5.422;2024-02-16T00:40:53;100992.34;;;11.14;85.00
80186;BME280;69904;52.122;5.422;2024-02-16T00:43:19;100991.50;;;11.14;84.68
80186;BME280;69904;52.122;5.422;2024-02-16T00:45:46;100987.31;;;11.11;85.05
80186;BME280;69904;52.122;5.422;2024-02-16T00:48:13;100990.41;;;11.08;84.86
80186;BME280;69904;52.122;5.422;2024-02-16T00:50:40;100977.94;;;11.07;85.19
80186;BME280;69904;52.122;5.422;2024-02-16T00:53:09;100985.22;;;11.07;85.03
80186;BME280;69904;52.122;5.422;2024-02-16T00:55:35;100985.44;;;11.05;84.92
80186;BME280;69904;52.122;5.422;2024-02-16T00:58:03;100978.34;;;11.04;84.92
80186;BME280;69904;52.122;5.422;2024-02-16T01:00:30;100981.44;;;11.01;85.31
80186;BME280;69904;52.122;5.422;2024-02-16T01:02:56;100978.53;;;11.03;85.02
80186;BME280;69904;52.122;5.422;2024-02-16T01:05:23;100983.09;;;11.02;85.19
80186;BME280;69904;52.122;5.422;2024-02-16T01:07:50;100983.09;;;11.02;85.33
80186;BME280;69904;52.122;5.422;2024-02-16T01:10:16;100981.66;;;11.00;85.18
80186;BME280;69904;52.122;5.422;2024-02-16T01:12:43;100975.41;;;10.99;85.42
80186;BME280;69904;52.122;5.422;2024-02-16T01:15:09;100979.13;;;10.98;85.02
80186;BME280;69904;52.122;5.422;2024-02-16T01:17:37;100968.75;;;10.95;85.02
80186;BME280;69904;52.122;5.422;2024-02-16T01:20:06;100964.13;;;10.95;85.37
80186;BME280;69904;52.122;5.422;2024-02-16T01:22:38;100963.34;;;10.95;85.21
80186;BME280;69904;52.122;5.422;2024-02-16T01:25:04;100966.03;;;10.95;85.47
80186;BME280;69904;52.122;5.422;2024-02-16T01:27:31;100959.97;;;10.93;85.62
80186;BME280;69904;52.122;5.422;2024-02-16T01:29:58;100958.31;;;10.92;85.23
80186;BME280;69904;52.122;5.422;2024-02-16T01:32:26;100963.06;;;10.90;85.57
80186;BME280;69904;52.122;5.422;2024-02-16T01:34:52;100957.03;;;10.88;85.63
80186;BME280;69904;52.122;5.422;2024-02-16T01:37:19;100953.69;;;10.86;85.78
80186;BME280;69904;52.122;5.422;2024-02-16T01:39:45;100952.66;;;10.87;85.45
80186;BME280;69904;52.122;5.422;2024-02-16T01:42:12;100950.81;;;10.87;85.74
80186;BME280;69904;52.122;5.422;2024-02-16T01:44:39;100945.59;;;10.86;85.73
80186;BME280;69904;52.122;5.422;2024-02-16T01:47:05;100947.47;;;10.85;85.55
80186;BME280;69904;52.122;5.422;2024-02-16T01:49:33;100956.81;;;10.83;85.77
80186;BME280;69904;52.122;5.422;2024-02-16T01:52:00;100951.78;;;10.80;85.49
80186;BME280;69904;52.122;5.422;2024-02-16T01:54:27;100956.16;;;10.81;85.94
80186;BME280;69904;52.122;5.422;2024-02-16T01:56:54;100953.63;;;10.79;85.58
80186;BME280;69904;52.122;5.422;2024-02-16T01:59:21;100949.91;;;10.80;85.89
80186;BME280;69904;52.122;5.422;2024-02-16T02:01:48;100943.66;;;10.80;85.61
80186;BME280;69904;52.122;5.422;2024-02-16T02:04:14;100937.91;;;10.83;85.65
80186;BME280;69904;52.122;5.422;2024-02-16T02:06:42;100946.00;;;10.83;86.01
80186;BME280;69904;52.122;5.422;2024-02-16T02:09:09;100944.97;;;10.84;85.94
80186;BME280;69904;52.122;5.422;2024-02-16T02:11:35;100926.91;;;10.84;86.03
80186;BME280;69904;52.122;5.422;2024-02-16T02:14:02;100927.94;;;10.83;85.99
80186;BME280;69904;52.122;5.422;2024-02-16T02:16:28;100930.63;;;10.83;86.32
80186;BME280;69904;52.122;5.422;2024-02-16T02:18:56;100940.97;;;10.80;86.26
80186;BME280;69904;52.122;5.422;2024-02-16T02:21:22;100933.28;;;10.77;85.96
80186;BME280;69904;52.122;5.422;2024-02-16T02:23:49;100931.78;;;10.74;86.14
80186;BME280;69904;52.122;5.422;2024-02-16T02:26:15;100943.25;;;10.76;85.83
80186;BME280;69904;52.122;5.422;2024-02-16T02:28:43;100945.09;;;10.76;86.18
80186;BME280;69904;52.122;5.422;2024-02-16T02:31:09;100943.91;;;10.78;86.30
80186;BME280;69904;52.122;5.422;2024-02-16T02:33:36;100934.75;;;10.79;86.26
80186;BME280;69904;52.122;5.422;2024-02-16T02:36:03;100939.13;;;10.80;85.69
80186;BME280;69904;52.122;5.422;2024-02-16T02:38:30;100930.19;;;10.80;85.45
80186;BME280;69904;52.122;5.422;2024-02-16T02:40:57;100928.53;;;10.79;85.47
80186;BME280;69904;52.122;5.422;2024-02-16T02:43:23;100920.44;;;10.79;85.53
80186;BME280;69904;52.122;5.422;2024-02-16T02:45:50;100919.38;;;10.80;85.23
80186;BME280;69904;52.122;5.422;2024-02-16T02:48:16;100913.97;;;10.80;85.71
80186;BME280;69904;52.122;5.422;2024-02-16T02:50:43;100904.25;;;10.79;85.20
80186;BME280;69904;52.122;5.422;2024-02-16T02:53:09;100909.63;;;10.79;85.34
80186;BME280;69904;52.122;5.422;2024-02-16T02:55:36;100906.72;;;10.80;85.19
80186;BME280;69904;52.122;5.422;2024-02-16T02:58:03;100903.00;;;10.81;85.19
80186;BME280;69904;52.122;5.422;2024-02-16T03:00:29;100904.00;;;10.80;85.12
80186;BME280;69904;52.122;5.422;2024-02-16T03:02:56;100898.00;;;10.78;85.22
80186;BME280;69904;52.122;5.422;2024-02-16T03:05:23;100895.50;;;10.77;85.17
80186;BME280;69904;52.122;5.422;2024-02-16T03:07:49;100892.97;;;10.75;84.94
80186;BME280;69904;52.122;5.422;2024-02-16T03:10:17;100895.88;;;10.74;85.50
80186;BME280;69904;52.122;5.422;2024-02-16T03:12:48;100898.97;;;10.71;85.41
80186;BME280;69904;52.122;5.422;2024-02-16T03:15:16;100896.69;;;10.68;85.16
80186;BME280;69904;52.122;5.422;2024-02-16T03:17:43;100892.69;;;10.64;85.32
80186;BME280;69904;52.122;5.422;2024-02-16T03:20:10;100889.38;;;10.62;85.66
80186;BME280;69904;52.122;5.422;2024-02-16T03:22:37;100894.13;;;10.60;85.52
80186;BME280;69904;52.122;5.422;2024-02-16T03:25:04;100889.75;;;10.59;85.29
80186;BME280;69904;52.122;5.422;2024-02-16T03:27:31;100893.69;;;10.56;85.71
80186;BME280;69904;52.122;5.422;2024-02-16T03:29:58;100891.34;;;10.53;85.90
80186;BME280;69904;52.122;5.422;2024-02-16T03:32:25;100894.28;;;10.51;85.60
80186;BME280;69904;52.122;5.422;2024-02-16T03:34:52;100895.31;;;10.50;85.81
80186;BME280;69904;52.122;5.422;2024-02-16T03:37:19;100893.63;;;10.49;85.64
80186;BME280;69904;52.122;5.422;2024-02-16T03:39:45;100897.34;;;10.48;85.96
80186;BME280;69904;52.122;5.422;2024-02-16T03:42:12;100894.88;;;10.47;85.69
80186;BME280;69904;52.122;5.422;2024-02-16T03:44:38;100885.09;;;10.46;85.84
80186;BME280;69904;52.122;5.422;2024-02-16T03:47:05;100892.34;;;10.45;85.58
80186;BME280;69904;52.122;5.422;2024-02-16T03:49:31;100895.25;;;10.44;85.83
80186;BME280;69904;52.122;5.422;2024-02-16T03:51:58;100895.44;;;10.42;85.80
80186;BME280;69904;52.122;5.422;2024-02-16T03:54:24;100888.38;;;10.41;85.92
80186;BME280;69904;52.122;5.422;2024-02-16T03:56:54;100902.06;;;10.40;85.94
80186;BME280;69904;52.122;5.422;2024-02-16T03:59:21;100892.09;;;10.40;86.17
80186;BME280;69904;52.122;5.422;2024-02-16T04:01:47;100890.44;;;10.39;86.12
80186;BME280;69904;52.122;5.422;2024-02-16T04:04:14;100902.06;;;10.40;85.76
80186;BME280;69904;52.122;5.422;2024-02-16T04:06:41;100881.50;;;10.39;85.97
80186;BME280;69904;52.122;5.422;2024-02-16T04:09:07;100897.69;;;10.39;85.72
80186;BME280;69904;52.122;5.422;2024-02-16T04:11:34;100903.91;;;10.39;86.05
80186;BME280;69904;52.122;5.422;2024-02-16T04:14:01;100897.03;;;10.37;86.15
80186;BME280;69904;52.122;5.422;2024-02-16T04:16:28;100901.63;;;10.36;85.87
80186;BME280;69904;52.122;5.422;2024-02-16T04:18:55;100901.81;;;10.35;86.06
80186;BME280;69904;52.122;5.422;2024-02-16T04:21:21;100897.25;;;10.35;85.90
80186;BME280;69904;52.122;5.422;2024-02-16T04:23:48;100896.59;;;10.33;86.17
80186;BME280;69904;52.122;5.422;2024-02-16T04:26:15;100894.75;;;10.34;86.03
80186;BME280;69904;52.122;5.422;2024-02-16T04:28:41;100894.94;;;10.32;85.96
80186;BME280;69904;52.122;5.422;2024-02-16T04:31:08;100899.72;;;10.30;85.67
80186;BME280;69904;52.122;5.422;2024-02-16T04:33:34;100902.59;;;10.29;85.73
80186;BME280;69904;52.122;5.422;2024-02-16T04:36:01;100893.66;;;10.28;85.86
80186;BME280;69904;52.122;5.422;2024-02-16T04:38:28;100893.84;;;10.27;86.12
80186;BME280;69904;52.122;5.422;2024-02-16T04:40:54;100887.59;;;10.26;85.90
80186;BME280;69904;52.122;5.422;2024-02-16T04:43:21;100901.09;;;10.26;86.09
80186;BME280;69904;52.122;5.422;2024-02-16T04:45:47;100900.91;;;10.28;86.24
80186;BME280;69904;52.122;5.422;2024-02-16T04:48:13;100897.84;;;10.31;86.13
80186;BME280;69904;52.122;5.422;2024-02-16T04:50:40;100906.13;;;10.29;85.75
80186;BME280;69904;52.122;5.422;2024-02-16T04:53:06;100903.59;;;10.28;85.78
80186;BME280;69904;52.122;5.422;2024-02-16T04:55:33;100900.06;;;10.27;85.81
80186;BME280;69904;52.122;5.422;2024-02-16T04:58:00;100896.34;;;10.28;86.11
80186;BME280;69904;52.122;5.422;2024-02-16T05:00:26;100892.63;;;10.29;85.75
80186;BME280;69904;52.122;5.422;2024-02-16T05:02:53;100905.47;;;10.27;86.29
80186;BME280;69904;52.122;5.422;2024-02-16T05:05:20;100894.69;;;10.27;86.12
80186;BME280;69904;52.122;5.422;2024-02-16T05:07:48;100901.09;;;10.26;85.95
80186;BME280;69904;52.122;5.422;2024-02-16T05:10:16;100901.09;;;10.26;86.42
80186;BME280;69904;52.122;5.422;2024-02-16T05:12:42;100904.00;;;10.25;86.41
80186;BME280;69904;52.122;5.422;2024-02-16T05:15:09;100904.00;;;10.25;86.05
80186;BME280;69904;52.122;5.422;2024-02-16T05:17:36;100903.78;;;10.26;86.27
80186;BME280;69904;52.122;5.422;2024-02-16T05:20:03;100888.84;;;10.24;86.18
80186;BME280;69904;52.122;5.422;2024-02-16T05:22:36;100896.94;;;10.24;86.28
80186;BME280;69904;52.122;5.422;2024-02-16T05:25:02;100889.69;;;10.24;86.32
80186;BME280;69904;52.122;5.422;2024-02-16T05:27:29;100890.53;;;10.25;86.24
80186;BME280;69904;52.122;5.422;2024-02-16T05:29:55;100886.78;;;10.26;86.24
80186;BME280;69904;52.122;5.422;2024-02-16T05:32:22;100882.22;;;10.26;86.42
80186;BME280;69904;52.122;5.422;2024-02-16T05:34:49;100883.06;;;10.27;86.38
80186;BME280;69904;52.122;5.422;2024-02-16T05:37:16;100888.44;;;10.27;86.58
80186;BME280;69904;52.122;5.422;2024-02-16T05:39:42;100884.91;;;10.26;86.37
80186;BME280;69904;52.122;5.422;2024-02-16T05:42:23;100884.06;;;10.26;86.23
80186;BME280;69904;52.122;5.422;2024-02-16T05:44:50;100885.97;;;10.25;86.41
80186;BME280;69904;52.122;5.422;2024-02-16T05:47:19;100890.31;;;10.26;86.55
80186;BME280;69904;52.122;5.422;2024-02-16T05:49:45;100880.56;;;10.25;86.58
80186;BME280;69904;52.122;5.422;2024-02-16T05:52:13;100885.97;;;10.25;86.67
80186;BME280;69904;52.122;5.422;2024-02-16T05:54:47;100890.53;;;10.25;86.96
80186;BME280;69904;52.122;5.422;2024-02-16T05:57:14;100899.47;;;10.25;86.59
80186;BME280;69904;52.122;5.422;2024-02-16T05:59:41;100887.00;;;10.24;86.61
80186;BME280;69904;52.122;5.422;2024-02-16T06:02:08;100887.81;;;10.25;87.03
80186;BME280;69904;52.122;5.422;2024-02-16T06:04:38;100887.81;;;10.25;86.71
80186;BME280;69904;52.122;5.422;2024-02-16T06:07:04;100889.69;;;10.24;86.94
80186;BME280;69904;52.122;5.422;2024-02-16T06:09:31;100885.31;;;10.23;86.93
80186;BME280;69904;52.122;5.422;2024-02-16T06:12:01;100889.69;;;10.24;86.85
80186;BME280;69904;52.122;5.422;2024-02-16T06:14:33;100895.25;;;10.23;87.24
80186;BME280;69904;52.122;5.422;2024-02-16T06:17:00;100891.72;;;10.22;87.21
80186;BME280;69904;52.122;5.422;2024-02-16T06:19:26;100887.19;;;10.23;87.29
80186;BME280;69904;52.122;5.422;2024-02-16T06:21:54;100905.22;;;10.22;87.33
80186;BME280;69904;52.122;5.422;2024-02-16T06:24:24;100914.16;;;10.23;87.44
80186;BME280;69904;52.122;5.422;2024-02-16T06:26:51;100915.16;;;10.22;87.66
80186;BME280;69904;52.122;5.422;2024-02-16T06:29:22;100920.19;;;10.25;87.59
80186;BME280;69904;52.122;5.422;2024-02-16T06:31:49;100929.13;;;10.25;87.34
80186;BME280;69904;52.122;5.422;2024-02-16T06:34:16;100931.59;;;10.27;87.59
80186;BME280;69904;52.122;5.422;2024-02-16T06:36:42;100935.31;;;10.26;87.48
80186;BME280;69904;52.122;5.422;2024-02-16T06:39:09;100929.94;;;10.26;87.78
80186;BME280;69904;52.122;5.422;2024-02-16T06:41:37;100933.28;;;10.28;87.40
80186;BME280;69904;52.122;5.422;2024-02-16T06:44:06;100927.03;;;10.27;87.93
80186;BME280;69904;52.122;5.422;2024-02-16T06:46:32;100943.06;;;10.29;87.53
80186;BME280;69904;52.122;5.422;2024-02-16T06:48:59;100942.88;;;10.30;87.90
80186;BME280;69904;52.122;5.422;2024-02-16T06:51:26;100949.09;;;10.31;87.67
80186;BME280;69904;52.122;5.422;2024-02-16T06:53:54;100955.31;;;10.31;87.67
80186;BME280;69904;52.122;5.422;2024-02-16T06:56:21;100952.59;;;10.31;87.73
80186;BME280;69904;52.122;5.422;2024-02-16T06:58:48;100960.50;;;10.33;87.85
80186;BME280;69904;52.122;5.422;2024-02-16T07:01:15;100956.78;;;10.34;87.83
80186;BME280;69904;52.122;5.422;2024-02-16T07:03:43;100947.88;;;10.33;88.01
80186;BME280;69904;52.122;5.422;2024-02-16T07:06:10;100955.78;;;10.35;87.97
80186;BME280;69904;52.122;5.422;2024-02-16T07:08:40;100959.31;;;10.35;88.20
80186;BME280;69904;52.122;5.422;2024-02-16T07:11:07;100960.13;;;10.36;88.10
80186;BME280;69904;52.122;5.422;2024-02-16T07:13:37;100970.53;;;10.39;87.99
80186;BME280;69904;52.122;5.422;2024-02-16T07:16:04;100966.81;;;10.40;87.96
80186;BME280;69904;52.122;5.422;2024-02-16T07:18:33;100970.34;;;10.40;88.42
80186;BME280;69904;52.122;5.422;2024-02-16T07:21:00;100983.84;;;10.40;88.00
80186;BME280;69904;52.122;5.422;2024-02-16T07:23:27;100980.13;;;10.41;88.11
80186;BME280;69904;52.122;5.422;2024-02-16T07:25:57;100984.47;;;10.42;88.54
80186;BME280;69904;52.122;5.422;2024-02-16T07:28:25;100981.59;;;10.44;88.38
80186;BME280;69904;52.122;5.422;2024-02-16T07:30:52;100978.88;;;10.44;88.55
80186;BME280;69904;52.122;5.422;2024-02-16T07:33:19;100986.59;;;10.47;88.32
80186;BME280;69904;52.122;5.422;2024-02-16T07:35:47;100985.38;;;10.49;88.31
80186;BME280;69904;52.122;5.422;2024-02-16T07:38:13;100988.72;;;10.51;88.27
80186;BME280;69904;52.122;5.422;2024-02-16T07:40:40;100998.47;;;10.52;88.36
80186;BME280;69904;52.122;5.422;2024-02-16T07:43:06;101000.13;;;10.53;88.73
80186;BME280;69904;52.122;5.422;2024-02-16T07:45:34;100998.47;;;10.52;88.39
80186;BME280;69904;52.122;5.422;2024-02-16T07:48:01;101006.38;;;10.54;88.59
80186;BME280;69904;52.122;5.422;2024-02-16T07:50:31;101005.34;;;10.55;88.51
80186;BME280;69904;52.122;5.422;2024-02-16T07:52:58;101010.56;;;10.57;88.84
80186;BME280;69904;52.122;5.422;2024-02-16T07:55:24;101009.31;;;10.59;88.42
80186;BME280;69904;52.122;5.422;2024-02-16T07:57:51;101015.19;;;10.63;88.62
80186;BME280;69904;52.122;5.422;2024-02-16T08:00:18;101013.13;;;10.65;88.57
80186;BME280;69904;52.122;5.422;2024-02-16T08:02:44;101018.50;;;10.65;88.65
80186;BME280;69904;52.122;5.422;2024-02-16T08:05:11;101025.19;;;10.69;88.63
80186;BME280;69904;52.122;5.422;2024-02-16T08:07:39;101027.13;;;10.75;88.93
80186;BME280;69904;52.122;5.422;2024-02-16T08:10:10;101030.06;;;10.80;88.95
80186;BME280;69904;52.122;5.422;2024-02-16T08:12:36;101035.53;;;10.86;88.70
80186;BME280;69904;52.122;5.422;2024-02-16T08:15:05;101032.06;;;10.92;88.61
80186;BME280;69904;52.122;5.422;2024-02-16T08:17:35;101039.56;;;10.97;88.49
80186;BME280;69904;52.122;5.422;2024-02-16T08:20:02;101026.78;;;11.06;88.71
80186;BME280;69904;52.122;5.422;2024-02-16T08:22:30;101044.50;;;11.15;88.23
80186;BME280;69904;52.122;5.422;2024-02-16T08:24:56;101040.78;;;11.22;88.39
80186;BME280;69904;52.122;5.422;2024-02-16T08:27:22;101052.69;;;11.28;88.26
80186;BME280;69904;52.122;5.422;2024-02-16T08:29:49;101045.47;;;11.35;88.30
80186;BME280;69904;52.122;5.422;2024-02-16T08:32:17;101055.50;;;11.41;87.61
80186;BME280;69904;52.122;5.422;2024-02-16T08:34:44;101041.81;;;11.49;87.51
80186;BME280;69904;52.122;5.422;2024-02-16T08:37:10;101049.13;;;11.55;87.14
80186;BME280;69904;52.122;5.422;2024-02-16T08:39:38;101046.66;;;11.60;87.49
80186;BME280;69904;52.122;5.422;2024-02-16T08:42:05;101064.97;;;11.65;86.66
80186;BME280;69904;52.122;5.422;2024-02-16T08:44:32;101055.03;;;11.72;86.89
80186;BME280;69904;52.122;5.422;2024-02-16T08:46:58;101060.09;;;11.75;86.98
80186;BME280;69904;52.122;5.422;2024-02-16T08:49:25;101049.91;;;11.77;86.83
80186;BME280;69904;52.122;5.422;2024-02-16T08:51:52;101056.56;;;11.81;86.90
80186;BME280;69904;52.122;5.422;2024-02-16T08:54:18;101057.03;;;11.85;86.92
80186;BME280;69904;52.122;5.422;2024-02-16T08:56:46;101055.78;;;11.87;86.50
80186;BME280;69904;52.122;5.422;2024-02-16T08:59:12;101066.81;;;11.92;86.39
80186;BME280;69904;52.122;5.422;2024-02-16T09:01:39;101070.59;;;11.98;86.16
80186;BME280;69904;52.122;5.422;2024-02-16T09:04:06;101070.81;;;12.03;86.50
80186;BME280;69904;52.122;5.422;2024-02-16T09:06:32;101084.59;;;12.08;86.04
80186;BME280;69904;52.122;5.422;2024-02-16T09:09:02;101075.25;;;12.10;85.85
80186;BME280;69904;52.122;5.422;2024-02-16T09:11:28;101086.72;;;12.12;85.72
80186;BME280;69904;52.122;5.422;2024-02-16T09:13:55;101089.59;;;12.11;86.12
80186;BME280;69904;52.122;5.422;2024-02-16T09:16:22;101107.06;;;12.08;86.30
80186;BME280;69904;52.122;5.422;2024-02-16T09:18:50;101099.38;;;12.05;86.92
80186;BME280;69904;52.122;5.422;2024-02-16T09:21:17;101108.94;;;12.01;86.87
80186;BME280;69904;52.122;5.422;2024-02-16T09:23:44;101115.31;;;11.94;87.98
80186;BME280;69904;52.122;5.422;2024-02-16T09:26:10;101126.75;;;11.89;88.53
80186;BME280;69904;52.122;5.422;2024-02-16T09:28:41;101130.06;;;11.85;89.27
80186;BME280;69904;52.122;5.422;2024-02-16T09:31:08;101133.13;;;11.81;90.08
80186;BME280;69904;52.122;5.422;2024-02-16T09:33:35;101146.22;;;11.78;90.74
80186;BME280;69904;52.122;5.422;2024-02-16T09:36:02;101150.97;;;11.76;90.95
80186;BME280;69904;52.122;5.422;2024-02-16T09:38:28;101136.84;;;11.74;91.58
80186;BME280;69904;52.122;5.422;2024-02-16T09:40:55;101159.31;;;11.74;91.73
80186;BME280;69904;52.122;5.422;2024-02-16T09:43:24;101153.06;;;11.74;92.36
80186;BME280;69904;52.122;5.422;2024-02-16T09:45:58;101164.72;;;11.74;92.64
80186;BME280;69904;52.122;5.422;2024-02-16T09:48:27;101163.09;;;11.80;92.89
80186;BME280;69904;52.122;5.422;2024-02-16T09:50:55;101178.06;;;11.82;93.04
80186;BME280;69904;52.122;5.422;2024-02-16T09:53:25;101179.56;;;11.85;93.27
80186;BME280;69904;52.122;5.422;2024-02-16T09:55:52;101177.69;;;11.86;93.40
80186;BME280;69904;52.122;5.422;2024-02-16T09:58:19;101185.59;;;11.87;93.35
80186;BME280;69904;52.122;5.422;2024-02-16T10:00:50;101191.22;;;11.86;93.60
80186;BME280;69904;52.122;5.422;2024-02-16T10:03:29;101190.56;;;11.84;93.76
80186;BME280;69904;52.122;5.422;2024-02-16T10:08:56;101192.19;;;11.78;94.11
80186;BME280;69904;52.122;5.422;2024-02-16T10:11:25;101196.75;;;11.77;94.17
80186;BME280;69904;52.122;5.422;2024-02-16T10:14:00;101206.94;;;11.75;94.65
80186;BME280;69904;52.122;5.422;2024-02-16T10:16:28;101211.72;;;11.73;94.75
80186;BME280;69904;52.122;5.422;2024-02-16T10:19:05;101214.75;;;11.70;95.23
80186;BME280;69904;52.122;5.422;2024-02-16T10:21:33;101214.97;;;11.69;95.90
80186;BME280;69904;52.122;5.422;2024-02-16T10:24:05;101223.47;;;11.66;95.99
80186;BME280;69904;52.122;5.422;2024-02-16T10:26:35;101230.13;;;11.63;96.59
80186;BME280;69904;52.122;5.422;2024-02-16T10:29:09;101232.16;;;11.61;96.50
80186;BME280;69904;52.122;5.422;2024-02-16T10:31:36;101234.03;;;11.61;97.11
80186;BME280;69904;52.122;5.422;2024-02-16T10:34:05;101235.47;;;11.57;97.40
80186;BME280;69904;52.122;5.422;2024-02-16T10:36:34;101252.88;;;11.54;97.29
80186;BME280;69904;52.122;5.422;2024-02-16T10:39:03;101261.00;;;11.54;97.99
80186;BME280;69904;52.122;5.422;2024-02-16T10:41:36;101252.09;;;11.54;98.37
80186;BME280;69904;52.122;5.422;2024-02-16T10:44:04;101262.06;;;11.53;98.27
80186;BME280;69904;52.122;5.422;2024-02-16T10:46:31;101267.81;;;11.50;98.39
80186;BME280;69904;52.122;5.422;2024-02-16T10:48:58;101279.66;;;11.49;98.16
80186;BME280;69904;52.122;5.422;2024-02-16T10:51:31;101284.81;;;11.44;98.67
80186;BME280;69904;52.122;5.422;2024-02-16T10:54:01;101284.19;;;11.42;98.81
80186;BME280;69904;52.122;5.422;2024-02-16T10:56:38;101285.22;;;11.41;98.93
80186;BME280;69904;52.122;5.422;2024-02-16T10:59:08;101296.19;;;11.39;98.99
80186;BME280;69904;52.122;5.422;2024-02-16T11:01:39;101310.94;;;11.37;99.46
80186;BME280;69904;52.122;5.422;2024-02-16T11:04:08;101314.84;;;11.34;100.00
80186;BME280;69904;52.122;5.422;2024-02-16T11:06:48;101306.94;;;11.33;99.75
80186;BME280;69904;52.122;5.422;2024-02-16T11:12:02;101304.88;;;11.35;99.63
80186;BME280;69904;52.122;5.422;2024-02-16T11:14:40;101308.25;;;11.37;99.76
80186;BME280;69904;52.122;5.422;2024-02-16T11:19:41;101316.16;;;11.38;100.00
80186;BME280;69904;52.122;5.422;2024-02-16T11:22:08;101316.97;;;11.39;100.00
80186;BME280;69904;52.122;5.422;2024-02-16T11:24:36;101314.50;;;11.37;100.00
80186;BME280;69904;52.122;5.422;2024-02-16T11:27:04;101316.97;;;11.39;100.00
80186;BME280;69904;52.122;5.422;2024-02-16T11:29:32;101329.47;;;11.40;100.00
80186;BME280;69904;52.122;5.422;2024-02-16T11:32:03;101323.41;;;11.38;100.00
80186;BME280;69904;52.122;5.422;2024-02-16T11:34:31;101342.72;;;11.35;100.00
80186;BME280;69904;52.122;5.422;2024-02-16T11:36:58;101339.00;;;11.36;100.00
80186;BME280;69904;52.122;5.422;2024-02-16T11:39:26;101340.03;;;11.35;100.00
80186;BME280;69904;52.122;5.422;2024-02-16T11:42:04;101333.78;;;11.34;100.00
80186;BME280;69904;52.122;5.422;2024-02-16T11:44:35;101342.34;;;11.38;100.00
80186;BME280;69904;52.122;5.422;2024-02-16T11:47:03;101345.03;;;11.38;100.00
80186;BME280;69904;52.122;5.422;2024-02-16T11:49:29;101339.00;;;11.36;100.00
80186;BME280;69904;52.122;5.422;2024-02-16T11:51:59;101341.69;;;11.36;100.00
80186;BME280;69904;52.122;5.422;2024-02-16T11:54:26;101346.44;;;11.34;100.00
80186;BME280;69904;52.122;5.422;2024-02-16T11:56:53;101358.50;;;11.31;100.00
80186;BME280;69904;52.122;5.422;2024-02-16T11:59:19;101364.75;;;11.32;100.00
80186;BME280;69904;52.122;5.422;2024-02-16T12:04:23;101376.19;;;11.34;100.00
80186;BME280;69904;52.122;5.422;2024-02-16T12:07:00;101387.38;;;11.31;100.00
80186;BME280;69904;52.122;5.422;2024-02-16T12:09:31;101395.47;;;11.31;100.00
80186;BME280;69904;52.122;5.422;2024-02-16T12:12:02;101406.28;;;11.31;100.00
80186;BME280;69904;52.122;5.422;2024-02-16T12:14:29;101415.88;;;11.33;100.00
80186;BME280;69904;52.122;5.422;2024-02-16T12:16:57;101400.13;;;11.37;100.00
80186;BME280;69904;52.122;5.422;2024-02-16T12:19:25;101396.69;;;11.43;100.00
80186;BME280;69904;52.122;5.422;2024-02-16T12:21:52;101403.94;;;11.43;100.00
80186;BME280;69904;52.122;5.422;2024-02-16T12:24:20;101414.09;;;11.40;100.00
80186;BME280;69904;52.122;5.422;2024-02-16T12:26:47;101420.78;;;11.45;100.00
80186;BME280;69904;52.122;5.422;2024-02-16T12:29:13;101432.00;;;11.42;100.00
80186;BME280;69904;52.122;5.422;2024-02-16T12:31:40;101422.38;;;11.39;100.00
80186;BME280;69904;52.122;5.422;2024-02-16T12:34:07;101440.09;;;11.42;100.00
80186;BME280;69904;52.122;5.422;2024-02-16T12:36:35;101433.47;;;11.44;100.00
80186;BME280;69904;52.122;5.422;2024-02-16T12:39:03;101450.06;;;11.41;100.00
80186;BME280;69904;52.122;5.422;2024-02-16T12:41:33;101450.44;;;11.38;100.00
80186;BME280;69904;52.122;5.422;2024-02-16T12:44:00;101458.75;;;11.36;100.00
80186;BME280;69904;52.122;5.422;2024-02-16T12:46:26;101448.78;;;11.37;100.00
80186;BME280;69904;52.122;5.422;2024-02-16T12:48:54;101458.19;;;11.41;100.00
80186;BME280;69904;52.122;5.422;2024-02-16T12:51:21;101457.63;;;11.46;100.00
80186;BME280;69904;52.122;5.422;2024-02-16T12:53:47;101464.25;;;11.43;100.00
80186;BME280;69904;52.122;5.422;2024-02-16T12:56:14;101466.56;;;11.46;100.00
80186;BME280;69904;52.122;5.422;2024-02-16T12:58:41;101478.94;;;11.55;100.00
80186;BME280;69904;52.122;5.422;2024-02-16T13:01:08;101483.59;;;11.61;99.81